To NAV CANADA Home Page Login to a new session Search on AWWS site Feedback and Comments Disclaimer Vers la page française équivalente Tips FAQ What's new on the site To the Forecasts and Observations / NOTAM section To "File a Flight Plan" website Publications and other links Update of the User's profile FIC Telephone Numbers My Weather Data Folder Route Weather Data Regional Weather Data Local Weather Data To the Forecasts and Observations / NOTAM section
Request Generated 07/28/2015 at 03:25:28 UTC . Weather information available at that time is displayed.

METAR/TAF

TORONTO/BILLY BISHOP TORONTO CITY AIRPORT/ON    (show WxCam)

METAR CYTZ 280300Z AUTO 31003KT 9SM CLR 26/17 A2999 RMK SLP154
DENSITY ALT 1400FT=
METAR CYTZ 280200Z AUTO 30002KT 9SM SCT075 25/19 A2998 RMK SLP150
DENSITY ALT 1300FT=
METAR CYTZ 280100Z AUTO 25002KT 9SM CLR 26/18 A2996 RMK SLP145
DENSITY ALT 1400FT=

TAF CYTZ 280140Z 2802/2902 VRB03KT P6SM SKC
BECMG 2813/2815 18008KT
BECMG 2822/2824 11005KT
RMK FCST BASED ON AUTO OBS. NXT FCST BY 280800Z=
Your time UTC time
Weather data provided by Environment Canada and NAV CANADA